Time;durP1;ratioP1;P1;durP2;ratioP2;P2;SDS_P1;SDS_P2;PMS_P1;PMS_P2;Temp;Humidity;BMP_temperature;BMP_pressure;BME280_temperature;BME280_humidity;BME280_pressure;Samples;Min_cycle;Max_cycle;Signal;HPM_P1;HPM_P2
2023/03/21 00:00:55;;;;;;;;;;;;;;;9.30;100.00;96442.03;5086597;28;19929;-83
2023/03/21 00:03:22;;;;;;;;;;;;;;;9.29;100.00;96440.38;5087557;28;19924;-82
2023/03/21 00:05:52;;;;;;;;;;;;;;;9.22;100.00;96433.41;5094341;28;19935;-83
2023/03/21 00:08:19;;;;;;;;;;;;;;;9.10;100.00;96434.09;5086991;28;19928;-82
2023/03/21 00:10:47;;;;;;;;;;;;;;;8.99;100.00;96434.00;5084005;28;19932;-83
2023/03/21 00:13:15;;;;;;;;;;;;;;;8.87;100.00;96428.47;5070974;28;19947;-83
2023/03/21 00:15:49;;;;;;;;;;;;;;;8.80;100.00;96434.94;5088155;28;19939;-83
2023/03/21 00:18:16;;;;;;;;;;;;;;;8.76;100.00;96439.13;5074923;28;20019;-83
2023/03/21 00:20:45;;;;;;;;;;;;;;;8.75;100.00;96432.91;5073405;28;19925;-82
2023/03/21 00:23:12;;;;;;;;;;;;;;;8.75;100.00;96432.91;5081642;28;19924;-83
2023/03/21 00:25:38;;;;;;;;;;;;;;;8.69;100.00;96428.38;5083311;28;19925;-82
2023/03/21 00:28:07;;;;;;;;;;;;;;;8.69;100.00;96423.00;5077188;28;19924;-83
2023/03/21 00:30:33;;;;;;;;;;;;;;;8.57;100.00;96424.72;5076218;28;19931;-82
2023/03/21 00:33:00;;;;;;;;;;;;;;;8.55;100.00;96429.50;5076403;28;19925;-83
2023/03/21 00:35:27;;;;;;;;;;;;;;;8.52;100.00;96428.06;5070017;28;19934;-82
2023/03/21 00:37:54;;;;;;;;;;;;;;;8.46;100.00;96415.47;5079781;28;19924;-83
2023/03/21 00:40:20;;;;;;;;;;;;;;;8.47;100.00;96413.59;5085142;28;19932;-83
2023/03/21 00:42:47;;;;;;;;;;;;;;;8.44;100.00;96408.66;5074518;28;19954;-82
2023/03/21 00:45:15;;;;;;;;;;;;;;;8.31;100.00;96418.44;5081537;28;19927;-82
2023/03/21 00:47:43;;;;;;;;;;;;;;;8.22;100.00;96417.00;5081701;28;19936;-82
2023/03/21 00:50:10;;;;;;;;;;;;;;;8.19;100.00;96414.75;5092547;28;19925;-82
2023/03/21 00:52:37;;;;;;;;;;;;;;;8.18;100.00;96410.41;5085129;28;19931;-82
2023/03/21 00:55:05;;;;;;;;;;;;;;;8.11;100.00;96420.34;5075037;28;19924;-82
2023/03/21 00:57:31;;;;;;;;;;;;;;;8.02;100.00;96427.00;5075431;28;19932;-82
2023/03/21 00:59:58;;;;;;;;;;;;;;;7.94;100.00;96425.38;5078930;28;19924;-83
2023/03/21 01:02:26;;;;;;;;;;;;;;;7.92;100.00;96432.00;5083189;28;19925;-83
2023/03/21 01:04:53;;;;;;;;;;;;;;;7.79;100.00;96426.69;5081909;28;19924;-83
2023/03/21 01:07:20;;;;;;;;;;;;;;;7.75;100.00;96426.25;5076940;28;19986;-82
2023/03/21 01:09:47;;;;;;;;;;;;;;;7.72;100.00;96425.88;5082179;28;19928;-83
2023/03/21 01:12:13;;;;;;;;;;;;;;;7.73;100.00;96424.84;5084645;28;19932;-82
2023/03/21 01:14:40;;;;;;;;;;;;;;;7.72;100.00;96420.50;5084986;28;19924;-83
2023/03/21 01:17:07;;;;;;;;;;;;;;;7.73;100.00;96428.34;5084902;28;19987;-82
2023/03/21 01:19:35;;;;;;;;;;;;;;;7.76;100.00;96419.84;5076562;28;20023;-83
2023/03/21 01:22:01;;;;;;;;;;;;;;;7.81;100.00;96421.91;5090858;28;19925;-82
2023/03/21 01:24:28;;;;;;;;;;;;;;;7.85;100.00;96423.13;5086195;28;19928;-82
2023/03/21 01:26:55;;;;;;;;;;;;;;;7.75;100.00;96426.25;5088059;28;20012;-82
2023/03/21 01:29:22;;;;;;;;;;;;;;;7.65;100.00;96431.28;5078894;28;19924;-83
2023/03/21 01:31:49;;;;;;;;;;;;;;;7.60;100.00;96425.69;5084413;28;19928;-83
2023/03/21 01:34:16;;;;;;;;;;;;;;;7.61;100.00;96430.03;5077032;28;19924;-82
2023/03/21 01:36:44;;;;;;;;;;;;;;;7.64;100.00;96428.78;5094843;28;19924;-82
2023/03/21 01:39:16;;;;;;;;;;;;;;;7.67;100.00;96422.97;5078977;28;19924;-83
2023/03/21 01:41:43;;;;;;;;;;;;;;;7.68;100.00;96424.63;5083799;28;19944;-83
2023/03/21 01:44:25;;;;;;;;;;;;;;;7.63;100.00;96421.75;5091529;28;19932;-82
2023/03/21 01:46:53;;;;;;;;;;;;;;;7.55;100.00;96420.94;5098920;28;19935;-82
2023/03/21 01:49:47;;;;;;;;;;;;;;;7.51;100.00;96422.38;5077567;28;19925;-82
2023/03/21 01:52:24;;;;;;;;;;;;;;;7.43;100.00;96417.22;5090651;28;19975;-83
2023/03/21 01:54:54;;;;;;;;;;;;;;;7.39;100.00;96410.63;5100183;28;19925;-82
2023/03/21 01:57:31;;;;;;;;;;;;;;;7.37;100.00;96409.19;5091426;28;19999;-83
2023/03/21 02:00:11;;;;;;;;;;;;;;;7.30;100.00;96394.94;5080194;28;19978;-83
2023/03/21 02:02:58;;;;;;;;;;;;;;;7.30;100.00;96403.84;5096307;28;19924;-83
2023/03/21 02:05:38;;;;;;;;;;;;;;;7.32;100.00;96408.97;5082049;28;19969;-83
2023/03/21 02:08:06;;;;;;;;;;;;;;;7.36;100.00;96407.53;5080646;28;19924;-82
2023/03/21 02:10:33;;;;;;;;;;;;;;;7.32;100.00;96400.91;5098925;28;19925;-83
2023/03/21 02:13:08;;;;;;;;;;;;;;;7.30;100.00;96392.25;5085081;28;19995;-83
2023/03/21 02:15:37;;;;;;;;;;;;;;;7.19;100.00;96405.28;5092001;28;19943;-83
2023/03/21 02:18:17;;;;;;;;;;;;;;;7.09;100.00;96396.81;5083856;28;19989;-82
2023/03/21 02:20:57;;;;;;;;;;;;;;;7.01;100.00;96390.81;5078315;28;19931;-83
2023/03/21 02:23:56;;;;;;;;;;;;;;;6.95;100.00;96387.13;5091592;28;20023;-82
2023/03/21 02:26:45;;;;;;;;;;;;;;;6.93;100.00;96386.50;5095754;28;20025;-83
2023/03/21 02:29:28;;;;;;;;;;;;;;;6.89;100.00;96385.25;5090337;28;19970;-83
2023/03/21 02:32:02;;;;;;;;;;;;;;;6.84;100.00;96383.19;5081988;28;19924;-83
2023/03/21 02:34:46;;;;;;;;;;;;;;;6.80;100.00;96386.50;5083759;28;19928;-83
2023/03/21 02:37:30;;;;;;;;;;;;;;;6.79;100.00;96384.84;5079218;28;19996;-82
2023/03/21 02:40:09;;;;;;;;;;;;;;;6.84;100.00;96379.66;5081639;28;19924;-82
2023/03/21 02:42:43;;;;;;;;;;;;;;;6.92;100.00;96379.47;5098072;28;19974;-83
2023/03/21 02:45:14;;;;;;;;;;;;;;;6.92;100.00;96381.31;5091741;28;19928;-82
2023/03/21 02:47:47;;;;;;;;;;;;;;;6.81;100.00;96380.91;5097984;28;19975;-83
2023/03/21 02:50:16;;;;;;;;;;;;;;;6.74;100.00;96376.56;5084464;28;19925;-83
2023/03/21 02:52:45;;;;;;;;;;;;;;;6.71;100.00;96374.31;5081960;28;19924;-83
2023/03/21 02:55:17;;;;;;;;;;;;;;;6.67;100.00;96376.56;5087060;28;19934;-82
2023/03/21 02:57:51;;;;;;;;;;;;;;;6.62;100.00;96371.00;5082521;28;19932;-83
2023/03/21 03:00:20;;;;;;;;;;;;;;;6.63;100.00;96369.16;5074316;28;19931;-83
2023/03/21 03:02:49;;;;;;;;;;;;;;;6.64;100.00;96368.91;5088078;28;19967;-82
2023/03/21 03:05:17;;;;;;;;;;;;;;;6.63;100.00;96372.66;5090645;28;19925;-83
2023/03/21 03:07:51;;;;;;;;;;;;;;;6.67;100.00;96365.00;5097959;28;19924;-83
2023/03/21 03:10:33;;;;;;;;;;;;;;;6.67;100.00;96368.50;5084316;28;19925;-83
2023/03/21 03:13:06;;;;;;;;;;;;;;;6.69;100.00;96365.63;5083585;28;19924;-83
2023/03/21 03:15:37;;;;;;;;;;;;;;;6.69;100.00;96365.63;5094968;28;19930;-83
2023/03/21 03:18:11;;;;;;;;;;;;;;;6.64;100.00;96363.56;5087100;28;19924;-83
2023/03/21 03:20:45;;;;;;;;;;;;;;;6.57;100.00;96361.91;5093516;28;19924;-83
2023/03/21 03:23:17;;;;;;;;;;;;;;;6.51;100.00;96366.22;5075193;28;19950;-82
2023/03/21 03:25:49;;;;;;;;;;;;;;;6.56;100.00;96360.25;5078694;28;19931;-82
2023/03/21 03:28:18;;;;;;;;;;;;;;;6.60;100.00;96351.59;5100995;28;19924;-83
2023/03/21 03:30:46;;;;;;;;;;;;;;;6.55;100.00;96364.78;5099762;28;19928;-81
2023/03/21 03:33:15;;;;;;;;;;;;;;;6.54;100.00;96360.47;5075436;28;19925;-81
2023/03/21 03:35:43;;;;;;;;;;;;;;;6.55;100.00;96359.41;5086931;28;19928;-81
2023/03/21 03:38:13;;;;;;;;;;;;;;;6.54;100.00;96357.78;5089941;28;20014;-81
2023/03/21 03:40:41;;;;;;;;;;;;;;;6.56;100.00;96363.75;5100583;28;19934;-81
2023/03/21 03:43:34;;;;;;;;;;;;;;;6.54;100.00;96362.31;5075989;28;19925;-81
2023/03/21 03:46:09;;;;;;;;;;;;;;;6.57;100.00;96365.41;5090302;28;19939;-81
2023/03/21 03:48:45;;;;;;;;;;;;;;;6.59;100.00;96373.25;5088182;28;20044;-81
2023/03/21 03:51:15;;;;;;;;;;;;;;;6.58;100.00;96367.06;5073963;28;19934;-81
2023/03/21 03:54:11;;;;;;;;;;;;;;;6.56;100.00;96373.66;5073099;28;20034;-81
2023/03/21 03:56:38;;;;;;;;;;;;;;;6.38;100.00;96380.44;5079263;28;20030;-81
2023/03/21 03:59:07;;;;;;;;;;;;;;;6.24;100.00;96380.63;5085162;28;19932;-81
2023/03/21 04:02:00;;;;;;;;;;;;;;;6.16;100.00;96378.13;5077518;28;20018;-81
2023/03/21 04:04:27;;;;;;;;;;;;;;;6.13;100.00;96373.16;5078684;28;19924;-81
2023/03/21 04:06:54;;;;;;;;;;;;;;;6.07;100.00;96378.28;5089007;28;19928;-81
2023/03/21 04:09:24;;;;;;;;;;;;;;;5.93;100.00;96376.59;5088110;28;20023;-81
2023/03/21 04:11:51;;;;;;;;;;;;;;;5.96;100.00;96370.00;5083667;28;19990;-81
2023/03/21 04:14:20;;;;;;;;;;;;;;;5.95;100.00;96369.19;5083634;28;19931;-81
2023/03/21 04:16:48;;;;;;;;;;;;;;;5.99;100.00;96372.28;5075604;28;19955;-81
2023/03/21 04:19:15;;;;;;;;;;;;;;;6.03;100.00;96373.56;5076943;28;20034;-81
2023/03/21 04:21:42;;;;;;;;;;;;;;;6.04;100.00;96373.31;5073650;28;19924;-81
2023/03/21 04:24:10;;;;;;;;;;;;;;;6.00;100.00;96371.25;5082962;28;20028;-81
2023/03/21 04:26:38;;;;;;;;;;;;;;;5.98;100.00;96376.00;5080076;28;19932;-81
2023/03/21 04:29:29;;;;;;;;;;;;;;;5.85;100.00;96374.06;5082012;28;19924;-81
2023/03/21 04:32:24;;;;;;;;;;;;;;;5.79;100.00;96382.06;5099128;28;20050;-81
2023/03/21 04:35:01;;;;;;;;;;;;;;;5.77;100.00;96381.47;5087128;28;19928;-81
2023/03/21 04:37:28;;;;;;;;;;;;;;;5.80;100.00;96379.19;5084829;28;19970;-81
2023/03/21 04:39:55;;;;;;;;;;;;;;;5.76;100.00;96369.91;5082893;28;19924;-81
2023/03/21 04:42:22;;;;;;;;;;;;;;;5.70;100.00;96371.50;5083942;28;19928;-81
2023/03/21 04:44:50;;;;;;;;;;;;;;;5.63;100.00;96364.47;5097581;28;19931;-81
2023/03/21 04:47:19;;;;;;;;;;;;;;;5.57;100.00;96370.63;5093899;28;19946;-81
2023/03/21 04:49:47;;;;;;;;;;;;;;;5.51;100.00;96366.09;5088423;28;20036;-81
2023/03/21 04:52:14;;;;;;;;;;;;;;;5.44;100.00;96371.41;5086098;28;19924;-81
2023/03/21 04:54:41;;;;;;;;;;;;;;;5.42;100.00;96364.59;5087330;28;19957;-81
2023/03/21 04:57:08;;;;;;;;;;;;;;;5.44;100.00;96365.22;5080919;28;19924;-81
2023/03/21 04:59:35;;;;;;;;;;;;;;;5.44;100.00;96365.22;5093898;28;19925;-82
2023/03/21 05:02:03;;;;;;;;;;;;;;;5.41;100.00;96357.56;5081882;28;19924;-81
2023/03/21 05:04:31;;;;;;;;;;;;;;;5.44;100.00;96368.72;5085685;28;19935;-81
2023/03/21 05:06:57;;;;;;;;;;;;;;;5.44;100.00;96360.69;5077030;28;19924;-82
2023/03/21 05:09:24;;;;;;;;;;;;;;;5.38;100.00;96357.97;5086670;28;19924;-81
2023/03/21 05:11:51;;;;;;;;;;;;;;;5.31;100.00;96357.94;5083249;28;19985;-81
2023/03/21 05:14:19;;;;;;;;;;;;;;;5.27;100.00;96359.38;5091714;28;19934;-81
2023/03/21 05:16:51;;;;;;;;;;;;;;;5.22;100.00;96356.44;5090559;28;19954;-81
2023/03/21 05:19:22;;;;;;;;;;;;;;;5.25;100.00;96354.19;5104750;28;19924;-81
2023/03/21 05:21:50;;;;;;;;;;;;;;;5.27;100.00;96357.47;5088421;28;19966;-81
2023/03/21 05:24:21;;;;;;;;;;;;;;;5.29;100.00;96352.75;5098398;28;19935;-81
2023/03/21 05:26:51;;;;;;;;;;;;;;;5.28;100.00;96355.63;5103214;28;19954;-81
2023/03/21 05:29:20;;;;;;;;;;;;;;;5.22;100.00;96348.41;5090558;28;20014;-81
2023/03/21 05:31:54;;;;;;;;;;;;;;;5.19;100.00;96352.28;5092468;28;19997;-81
2023/03/21 05:34:23;;;;;;;;;;;;;;;5.09;100.00;96345.66;5076687;28;19929;-81
2023/03/21 05:36:50;;;;;;;;;;;;;;;5.05;100.00;96350.56;5093981;28;19924;-81
2023/03/21 05:39:17;;;;;;;;;;;;;;;5.06;100.00;96349.53;5093651;28;20005;-82
2023/03/21 05:41:55;;;;;;;;;;;;;;;5.09;100.00;96351.84;5090912;28;19956;-82
2023/03/21 05:44:23;;;;;;;;;;;;;;;5.08;100.00;96344.00;5084697;28;20003;-81
2023/03/21 05:46:50;;;;;;;;;;;;;;;5.10;100.00;96348.13;5075428;28;20027;-82
2023/03/21 05:49:21;;;;;;;;;;;;;;;5.16;100.00;96349.19;5082159;28;19924;-82
2023/03/21 05:51:54;;;;;;;;;;;;;;;5.23;100.00;96353.56;5072113;28;19924;-81
2023/03/21 05:54:21;;;;;;;;;;;;;;;5.25;100.00;96346.16;5099013;28;19990;-81
2023/03/21 05:56:50;;;;;;;;;;;;;;;5.25;100.00;96356.06;5081004;28;19928;-81
2023/03/21 05:59:26;;;;;;;;;;;;;;;5.28;100.00;96351.09;5091354;28;19936;-81
2023/03/21 06:01:55;;;;;;;;;;;;;;;5.29;100.00;96347.41;5084604;28;19981;-81
2023/03/21 06:04:22;;;;;;;;;;;;;;;5.30;100.00;96349.06;5090444;28;19932;-81
2023/03/21 06:06:49;;;;;;;;;;;;;;;5.30;100.00;96343.72;5081494;28;19924;-81
2023/03/21 06:09:18;;;;;;;;;;;;;;;5.27;100.00;96348.66;5072108;28;19925;-82
2023/03/21 06:11:53;;;;;;;;;;;;;;;5.27;100.00;96348.66;5076871;28;19957;-82
2023/03/21 06:14:32;;;;;;;;;;;;;;;5.23;100.00;96350.88;5077364;28;19946;-81
2023/03/21 06:17:11;;;;;;;;;;;;;;;5.21;100.00;96344.91;5092574;28;19924;-82
2023/03/21 06:19:45;;;;;;;;;;;;;;;5.22;100.00;96357.25;5089226;28;19948;-81
2023/03/21 06:22:18;;;;;;;;;;;;;;;5.21;100.00;96352.94;5081041;28;19928;-81
2023/03/21 06:24:47;;;;;;;;;;;;;;;5.23;100.00;96352.72;5074712;28;19986;-81
2023/03/21 06:27:16;;;;;;;;;;;;;;;5.25;100.00;96356.88;5076736;28;19986;-81
2023/03/21 06:29:50;;;;;;;;;;;;;;;5.24;100.00;96351.72;5080042;28;20167;-81
2023/03/21 06:32:17;;;;;;;;;;;;;;;5.22;100.00;96353.75;5073762;28;19931;-81
2023/03/21 06:34:44;;;;;;;;;;;;;;;5.18;100.00;96350.66;5083918;28;19925;-83
2023/03/21 06:37:14;;;;;;;;;;;;;;;5.17;100.00;96356.22;5075295;28;19932;-83
2023/03/21 06:39:41;;;;;;;;;;;;;;;5.17;100.00;96350.84;5074726;28;19924;-83
2023/03/21 06:42:11;;;;;;;;;;;;;;;5.16;100.00;96352.69;5072683;28;20009;-83
2023/03/21 06:44:38;;;;;;;;;;;;;;;5.14;100.00;96353.91;5086925;28;19995;-84
2023/03/21 06:47:08;;;;;;;;;;;;;;;5.18;100.00;96349.84;5075245;28;19955;-83
2023/03/21 06:49:35;;;;;;;;;;;;;;;5.16;100.00;96347.34;5084504;28;19935;-83
2023/03/21 06:52:08;;;;;;;;;;;;;;;5.15;100.00;96351.03;5073773;28;19968;-83
2023/03/21 06:54:35;;;;;;;;;;;;;;;5.14;100.00;96348.56;5090038;28;19924;-84
2023/03/21 06:57:09;;;;;;;;;;;;;;;5.10;100.00;96350.81;5090692;28;19960;-84
2023/03/21 06:59:39;;;;;;;;;;;;;;;5.05;100.00;96353.25;5072663;28;20024;-84
2023/03/21 07:02:14;;;;;;;;;;;;;;;5.10;100.00;96350.00;5089818;28;19942;-84
2023/03/21 07:05:00;;;;;;;;;;;;;;;5.12;100.00;96358.63;5086607;28;19925;-84
2023/03/21 07:07:29;;;;;;;;;;;;;;;5.15;100.00;96351.03;5080897;28;19985;-84
2023/03/21 07:09:56;;;;;;;;;;;;;;;5.22;100.00;96357.25;5079627;28;19928;-84
2023/03/21 07:12:24;;;;;;;;;;;;;;;5.24;100.00;96368.59;5076907;28;19928;-83
2023/03/21 07:15:24;;;;;;;;;;;;;;;5.31;100.00;96360.59;5075895;28;19931;-84
2023/03/21 07:17:51;;;;;;;;;;;;;;;5.34;100.00;96360.22;5076709;28;20035;-84
2023/03/21 07:20:18;;;;;;;;;;;;;;;5.38;100.00;96361.47;5070616;28;19931;-84
2023/03/21 07:22:45;;;;;;;;;;;;;;;5.45;100.00;96364.19;5086121;28;19956;-84
2023/03/21 07:25:12;;;;;;;;;;;;;;;5.45;100.00;96373.03;5072085;28;19930;-84
2023/03/21 07:27:39;;;;;;;;;;;;;;;5.49;100.00;96376.16;5076115;28;19978;-82
2023/03/21 07:30:07;;;;;;;;;;;;;;;5.50;100.00;96370.59;5082210;28;19925;-82
2023/03/21 07:32:36;;;;;;;;;;;;;;;5.52;100.00;96373.09;5099540;28;19955;-82
2023/03/21 07:35:05;;;;;;;;;;;;;;;5.52;100.00;96379.28;5079973;28;19924;-82
2023/03/21 07:37:50;;;;;;;;;;;;;;;5.53;100.00;96372.06;5158678;27;19920;-79
2023/03/21 07:40:18;;;;;;;;;;;;;;;5.51;100.00;96376.78;5148954;27;19931;-79
2023/03/21 07:42:44;;;;;;;;;;;;;;;5.50;100.00;96375.13;5111962;28;19972;-79
2023/03/21 07:45:14;;;;;;;;;;;;;;;5.46;100.00;96369.34;5111737;28;20341;-78
2023/03/21 07:47:41;;;;;;;;;;;;;;;5.51;100.00;96374.13;5127485;27;20026;-79
2023/03/21 07:50:10;;;;;;;;;;;;;;;5.58;100.00;96377.66;5121851;27;20027;-79
2023/03/21 07:52:38;;;;;;;;;;;;;;;5.68;100.00;96370.09;5115054;28;19931;-78
2023/03/21 07:55:06;;;;;;;;;;;;;;;5.69;100.00;96369.06;5114701;28;19930;-79
2023/03/21 07:57:33;;;;;;;;;;;;;;;5.71;100.00;96372.34;5116064;28;19931;-78
2023/03/21 08:00:00;;;;;;;;;;;;;;;5.64;100.00;96374.16;5124959;28;19931;-79
2023/03/21 08:02:27;;;;;;;;;;;;;;;5.64;100.00;96363.44;5119009;28;19928;-78
2023/03/21 08:04:54;;;;;;;;;;;;;;;5.69;100.00;96369.06;5113752;27;19924;-79
2023/03/21 08:07:20;;;;;;;;;;;;;;;5.76;100.00;96371.75;5109842;28;19927;-78
2023/03/21 08:09:47;;;;;;;;;;;;;;;5.82;100.00;96362.91;5114884;27;20438;-79
2023/03/21 08:12:15;;;;;;;;;;;;;;;5.93;100.00;96357.84;5133262;27;19924;-79
2023/03/21 08:14:42;;;;;;;;;;;;;;;6.03;100.00;96360.97;5108635;28;20050;-79
2023/03/21 08:17:09;;;;;;;;;;;;;;;6.17;100.00;96361.00;5110096;27;20222;-79
2023/03/21 08:19:36;;;;;;;;;;;;;;;6.29;100.00;96359.41;5113313;27;19928;-79
2023/03/21 08:22:04;;;;;;;;;;;;;;;6.42;100.00;96360.25;5113628;28;19931;-79
2023/03/21 08:24:32;;;;;;;;;;;;;;;6.58;100.00;96359.00;5118612;27;19931;-78
2023/03/21 08:26:59;;;;;;;;;;;;;;;6.78;100.00;96364.41;5116910;28;20003;-79
2023/03/21 08:29:27;;;;;;;;;;;;;;;7.13;100.00;96365.00;5106356;27;19924;-79
2023/03/21 08:31:54;;;;;;;;;;;;;;;7.47;100.00;96354.00;5124045;28;19985;-79
2023/03/21 08:34:21;;;;;;;;;;;;;;;7.73;100.00;96353.09;5121953;27;19927;-78
2023/03/21 08:36:48;;;;;;;;;;;;;;;7.97;100.00;96348.84;5111013;27;19999;-79
2023/03/21 08:39:15;;;;;;;;;;;;;;;8.24;100.00;96346.88;5109888;28;19931;-79
2023/03/21 08:41:42;;;;;;;;;;;;;;;8.53;100.00;96348.16;5120900;27;19931;-79
2023/03/21 08:44:09;;;;;;;;;;;;;;;8.78;100.00;96340.94;5112730;27;19924;-79
2023/03/21 08:46:37;;;;;;;;;;;;;;;8.94;98.46;96337.69;5115266;27;19928;-79
2023/03/21 08:49:04;;;;;;;;;;;;;;;9.02;93.46;96337.41;5095033;28;19924;-79
2023/03/21 08:51:32;;;;;;;;;;;;;;;9.17;94.76;96334.38;5098205;28;19974;-79
2023/03/21 08:53:59;;;;;;;;;;;;;;;9.32;92.63;96328.63;5108154;27;19998;-79
2023/03/21 08:56:26;;;;;;;;;;;;;;;9.52;89.49;96331.97;5093924;28;19939;-79
2023/03/21 08:58:53;;;;;;;;;;;;;;;9.72;87.54;96327.16;5105886;28;20319;-79
2023/03/21 09:01:19;;;;;;;;;;;;;;;9.97;85.85;96329.75;5096745;28;20128;-79
2023/03/21 09:03:48;;;;;;;;;;;;;;;10.27;82.97;96324.44;5105646;28;19931;-79
2023/03/21 09:06:14;;;;;;;;;;;;;;;10.60;82.03;96319.38;5099907;28;19927;-79
2023/03/21 09:08:42;;;;;;;;;;;;;;;10.80;80.18;96326.34;5095802;28;19924;-79
2023/03/21 09:11:08;;;;;;;;;;;;;;;11.00;78.50;96321.44;5102675;27;19928;-79
2023/03/21 09:13:35;;;;;;;;;;;;;;;11.24;76.71;96323.09;5105147;28;19928;-79
2023/03/21 09:16:02;;;;;;;;;;;;;;;11.33;77.36;96329.78;5103787;27;20022;-79
2023/03/21 09:18:43;;;;;;;;;;;;;;;11.40;79.49;96324.25;5098420;28;19924;-79
2023/03/21 09:21:12;;;;;;;;;;;;;;;11.48;79.78;96315.81;5099892;28;19932;-79
2023/03/21 09:23:39;;;;;;;;;;;;;;;11.68;79.72;96315.41;5098488;27;19924;-79
2023/03/21 09:26:06;;;;;;;;;;;;;;;11.85;79.01;96315.53;5112842;27;19975;-79
2023/03/21 09:28:33;;;;;;;;;;;;;;;11.96;79.41;96307.38;5098283;28;19931;-79
2023/03/21 09:31:01;;;;;;;;;;;;;;;12.09;78.94;96307.09;5102225;28;19924;-79
2023/03/21 09:33:28;;;;;;;;;;;;;;;12.19;77.25;96305.66;5102767;27;19985;-79
2023/03/21 09:35:59;;;;;;;;;;;;;;;12.32;75.59;96297.25;5093026;28;19924;-80
2023/03/21 09:38:29;;;;;;;;;;;;;;;12.43;74.56;96302.59;5104106;28;19981;-79
2023/03/21 09:41:06;;;;;;;;;;;;;;;12.50;74.00;96297.84;5105653;28;19928;-79
2023/03/21 09:43:39;;;;;;;;;;;;;;;12.49;73.70;96303.53;5104344;28;19984;-80
2023/03/21 09:46:10;;;;;;;;;;;;;;;12.65;74.86;96299.22;5102923;27;19931;-79
2023/03/21 09:48:40;;;;;;;;;;;;;;;12.71;73.79;96295.50;5095454;28;19923;-79
2023/03/21 09:51:12;;;;;;;;;;;;;;;12.80;69.73;96297.56;5104263;28;20007;-79
2023/03/21 09:53:42;;;;;;;;;;;;;;;12.86;70.05;96301.19;5097456;28;19924;-80
2023/03/21 09:56:11;;;;;;;;;;;;;;;12.91;68.04;96301.28;5095486;28;19931;-79
2023/03/21 09:58:40;;;;;;;;;;;;;;;13.01;70.80;96289.78;5095826;27;19973;-79
2023/03/21 10:01:21;;;;;;;;;;;;;;;12.95;72.40;96291.56;5092008;28;19928;-80
2023/03/21 10:03:49;;;;;;;;;;;;;;;13.00;72.11;96288.16;5098749;28;20030;-80
2023/03/21 10:06:16;;;;;;;;;;;;;;;12.95;73.76;96288.03;5103939;28;19924;-80
2023/03/21 10:08:45;;;;;;;;;;;;;;;12.99;74.38;96286.50;5091133;28;19947;-80
2023/03/21 10:11:15;;;;;;;;;;;;;;;12.99;76.80;96281.91;5097583;28;19924;-80
2023/03/21 10:13:44;;;;;;;;;;;;;;;12.96;77.07;96285.09;5093758;27;19981;-80
2023/03/21 10:16:14;;;;;;;;;;;;;;;12.90;81.36;96283.38;5094763;28;19924;-80
2023/03/21 10:18:42;;;;;;;;;;;;;;;12.94;80.46;96281.81;5102253;28;19928;-80
2023/03/21 10:21:15;;;;;;;;;;;;;;;12.87;82.76;96292.00;5101387;28;19924;-80
2023/03/21 10:23:42;;;;;;;;;;;;;;;12.90;81.27;96296.94;5101787;28;19924;-80
2023/03/21 10:26:11;;;;;;;;;;;;;;;12.78;82.53;96297.00;5095662;28;19928;-80
2023/03/21 10:28:40;;;;;;;;;;;;;;;12.70;84.77;96300.09;5097325;28;19924;-80
2023/03/21 10:31:08;;;;;;;;;;;;;;;12.62;84.84;96299.69;5103788;27;19930;-80
2023/03/21 10:33:36;;;;;;;;;;;;;;;12.61;83.81;96298.03;5101853;28;20023;-80
2023/03/21 10:36:05;;;;;;;;;;;;;;;12.59;82.33;96300.19;5097609;28;19947;-80
2023/03/21 10:38:32;;;;;;;;;;;;;;;12.51;83.36;96310.34;5093700;27;20007;-80
2023/03/21 10:40:59;;;;;;;;;;;;;;;12.50;82.96;96305.97;5093767;28;19928;-80
2023/03/21 10:43:36;;;;;;;;;;;;;;;12.55;81.91;96305.25;5100902;28;19953;-80
2023/03/21 10:46:07;;;;;;;;;;;;;;;12.63;81.58;96310.28;5104119;28;19923;-80
2023/03/21 10:48:38;;;;;;;;;;;;;;;12.66;80.33;96304.38;5103229;28;19930;-80
2023/03/21 10:51:07;;;;;;;;;;;;;;;12.76;79.35;96311.88;5100674;27;19928;-80
2023/03/21 10:53:36;;;;;;;;;;;;;;;12.87;78.36;96317.19;5090866;28;19973;-79
2023/03/21 10:56:06;;;;;;;;;;;;;;;13.01;78.25;96316.91;5097611;27;19946;-80
2023/03/21 10:58:38;;;;;;;;;;;;;;;13.17;77.43;96307.97;5104111;28;19931;-80
2023/03/21 11:01:07;;;;;;;;;;;;;;;13.31;76.05;96303.00;5104258;28;19924;-80
2023/03/21 11:03:36;;;;;;;;;;;;;;;13.44;74.95;96310.81;5100912;28;19931;-80
2023/03/21 11:06:06;;;;;;;;;;;;;;;13.63;75.75;96314.88;5098136;28;19924;-80
2023/03/21 11:08:38;;;;;;;;;;;;;;;13.81;73.42;96308.34;5101996;28;19948;-80
2023/03/21 11:11:05;;;;;;;;;;;;;;;13.71;71.98;96311.72;5090280;28;19932;-81
2023/03/21 11:13:39;;;;;;;;;;;;;;;13.75;71.33;96310.16;5092609;28;19960;-80
2023/03/21 11:16:08;;;;;;;;;;;;;;;13.77;71.26;96309.91;5092584;28;19931;-80
2023/03/21 11:18:40;;;;;;;;;;;;;;;13.81;70.40;96308.34;5093613;28;19928;-80
2023/03/21 11:21:08;;;;;;;;;;;;;;;13.94;70.96;96314.22;5093682;28;19930;-80
2023/03/21 11:23:38;;;;;;;;;;;;;;;14.20;70.37;96317.25;5107136;27;19931;-80
2023/03/21 11:26:09;;;;;;;;;;;;;;;14.42;69.55;96306.38;5096190;28;19928;-80
2023/03/21 11:28:37;;;;;;;;;;;;;;;14.54;69.92;96312.50;5099017;28;19934;-80
2023/03/21 11:31:08;;;;;;;;;;;;;;;14.62;71.21;96309.31;5098298;28;19924;-80
2023/03/21 11:33:36;;;;;;;;;;;;;;;14.79;70.09;96307.31;5103854;27;20001;-81
2023/03/21 11:36:04;;;;;;;;;;;;;;;14.78;69.80;96297.53;5091628;28;20019;-81
2023/03/21 11:38:36;;;;;;;;;;;;;;;14.90;71.30;96294.63;5124608;27;19924;-81
2023/03/21 11:41:03;;;;;;;;;;;;;;;15.08;69.47;96295.06;5096987;28;19946;-81
2023/03/21 11:43:31;;;;;;;;;;;;;;;15.14;68.75;96280.41;5090692;28;20015;-81
2023/03/21 11:45:59;;;;;;;;;;;;;;;15.17;67.84;96276.34;5094065;28;19969;-81
2023/03/21 11:48:28;;;;;;;;;;;;;;;15.20;68.38;96272.31;5102753;28;19968;-81
2023/03/21 11:50:59;;;;;;;;;;;;;;;15.24;68.29;96263.34;5089381;28;19930;-80
2023/03/21 11:53:30;;;;;;;;;;;;;;;15.36;69.34;96260.44;5091230;28;19980;-81
2023/03/21 11:56:03;;;;;;;;;;;;;;;15.48;67.56;96248.25;5104622;28;19959;-80
2023/03/21 11:58:35;;;;;;;;;;;;;;;15.50;68.33;96253.44;5093815;28;19970;-81
2023/03/21 12:01:08;;;;;;;;;;;;;;;15.62;67.36;96248.66;5102371;28;19927;-81
2023/03/21 12:03:53;;;;;;;;;;;;;;;15.73;68.02;96242.19;5107240;28;19950;-81
2023/03/21 12:06:25;;;;;;;;;;;;;;;15.93;66.59;96230.53;5092182;28;19924;-81
2023/03/21 12:09:00;;;;;;;;;;;;;;;16.04;66.26;96231.41;5092844;28;20010;-81
2023/03/21 12:11:31;;;;;;;;;;;;;;;16.00;67.01;96216.66;5100720;28;19931;-81
2023/03/21 12:14:03;;;;;;;;;;;;;;;16.11;68.01;96211.00;5111400;28;19953;-81
2023/03/21 12:16:42;;;;;;;;;;;;;;;16.31;68.44;96210.22;5096929;28;19963;-81
2023/03/21 12:19:21;;;;;;;;;;;;;;;16.44;67.62;96197.97;5092721;28;19954;-81
2023/03/21 12:21:54;;;;;;;;;;;;;;;16.42;66.39;96195.50;5109025;27;19931;-81
2023/03/21 12:24:23;;;;;;;;;;;;;;;16.42;66.71;96195.50;5115533;27;19923;-82
2023/03/21 12:26:55;;;;;;;;;;;;;;;16.47;67.17;96190.09;5102585;27;19938;-81
2023/03/21 12:29:29;;;;;;;;;;;;;;;16.44;65.27;96178.91;5108061;28;19966;-81
2023/03/21 12:32:02;;;;;;;;;;;;;;;16.45;66.07;96170.44;5095245;28;19946;-81
2023/03/21 12:34:39;;;;;;;;;;;;;;;16.52;66.13;96165.53;5101690;27;19946;-81
2023/03/21 12:37:14;;;;;;;;;;;;;;;16.58;66.12;96169.09;5104605;28;19945;-82
2023/03/21 12:39:41;;;;;;;;;;;;;;;16.47;66.31;96171.00;5107670;27;19923;-82
2023/03/21 12:42:26;;;;;;;;;;;;;;;16.47;67.09;96162.81;5102527;28;19963;-81
2023/03/21 12:44:56;;;;;;;;;;;;;;;16.50;68.13;96156.03;5093374;28;19932;-81
2023/03/21 12:47:24;;;;;;;;;;;;;;;16.44;66.17;96146.19;5103615;27;20010;-81
2023/03/21 12:49:55;;;;;;;;;;;;;;;16.48;64.51;96147.31;5104147;28;19923;-81
2023/03/21 12:52:25;;;;;;;;;;;;;;;16.47;63.84;96143.75;5103277;28;19928;-81
2023/03/21 12:54:55;;;;;;;;;;;;;;;16.58;65.84;96137.22;5098089;28;19924;-81
2023/03/21 12:57:25;;;;;;;;;;;;;;;16.51;66.78;96133.94;5096342;28;19924;-82
2023/03/21 12:59:54;;;;;;;;;;;;;;;16.58;66.93;96131.78;5100499;28;19931;-82
2023/03/21 13:02:25;;;;;;;;;;;;;;;16.68;66.33;96132.84;5108669;28;19926;-82
2023/03/21 13:04:59;;;;;;;;;;;;;;;16.68;63.41;96136.41;5101580;27;19977;-82